createdAt,value
2022-07-26T00:00:13.232Z,101197.41
2022-07-26T00:02:48.380Z,101198.66
2022-07-26T00:05:17.701Z,101199.84
2022-07-26T00:07:45.933Z,101203.56
2022-07-26T00:10:14.223Z,101194.13
2022-07-26T00:12:41.808Z,101207.84
2022-07-26T00:15:11.129Z,101209.47
2022-07-26T00:17:38.877Z,101208.91
2022-07-26T00:20:06.747Z,101202.94
2022-07-26T00:22:36.394Z,101213.81
2022-07-26T00:25:08.653Z,101213.81
2022-07-26T00:27:39.141Z,101203.78
2022-07-26T00:30:08.045Z,101207.88
2022-07-26T00:32:35.132Z,101213.84
2022-07-26T00:35:01.947Z,101211.78
2022-07-26T00:37:28.816Z,101213.63
2022-07-26T00:39:55.719Z,101204.56
2022-07-26T00:42:22.676Z,101204.34
2022-07-26T00:44:53.629Z,101216.06
2022-07-26T00:47:20.459Z,101215.84
2022-07-26T00:49:47.507Z,101217.50
2022-07-26T00:52:14.585Z,101217.50
2022-07-26T00:54:44.230Z,101221.84
2022-07-26T00:57:11.455Z,101219.78
2022-07-26T00:59:38.640Z,101213.41
2022-07-26T01:02:07.807Z,101214.22
2022-07-26T01:04:35.571Z,101214.44
2022-07-26T01:07:03.181Z,101211.56
2022-07-26T01:09:42.316Z,101210.34
2022-07-26T01:12:09.865Z,101211.38
2022-07-26T01:14:37.266Z,101212.56
2022-07-26T01:17:04.332Z,101214.00
2022-07-26T01:19:31.246Z,101210.94
2022-07-26T01:21:58.313Z,101204.97
2022-07-26T01:24:25.109Z,101217.25
2022-07-26T01:26:51.959Z,101211.13
2022-07-26T01:29:18.944Z,101210.66
2022-07-26T01:31:45.867Z,101214.13
2022-07-26T01:34:13.113Z,101208.19
2022-07-26T01:36:40.183Z,101213.72
2022-07-26T01:39:07.684Z,101221.91
2022-07-26T01:41:37.519Z,101223.13
2022-07-26T01:44:06.875Z,101222.94
2022-07-26T01:46:35.291Z,101225.38
2022-07-26T01:49:02.212Z,101222.28
2022-07-26T01:51:29.159Z,101230.88
2022-07-26T01:53:56.232Z,101231.53
2022-07-26T01:56:23.127Z,101232.53
2022-07-26T01:58:50.439Z,101232.34
2022-07-26T02:01:39.721Z,101237.09
2022-07-26T02:04:04.673Z,101225.00
2022-07-26T02:06:31.798Z,101226.00
2022-07-26T02:08:58.646Z,101230.97
2022-07-26T02:11:26.349Z,101231.16
2022-07-26T02:13:53.439Z,101228.25
2022-07-26T02:16:20.592Z,101243.41
2022-07-26T02:18:47.500Z,101234.16
2022-07-26T02:21:14.313Z,101230.63
2022-07-26T02:23:41.881Z,101237.19
2022-07-26T02:26:09.205Z,101236.38
2022-07-26T02:28:36.197Z,101237.38
2022-07-26T02:31:03.176Z,101241.28
2022-07-26T02:33:30.156Z,101241.91
2022-07-26T02:35:57.009Z,101244.78
2022-07-26T02:38:25.090Z,101240.28
2022-07-26T02:40:52.952Z,101239.63
2022-07-26T02:43:20.288Z,101246.41
2022-07-26T02:46:02.165Z,101246.03
2022-07-26T02:48:30.974Z,101255.63
2022-07-26T02:50:57.868Z,101246.63
2022-07-26T02:53:24.670Z,101257.28
2022-07-26T02:55:51.870Z,101255.03
2022-07-26T02:58:21.677Z,101257.47
2022-07-26T03:00:48.768Z,101256.66
2022-07-26T03:03:15.708Z,101262.19
2022-07-26T03:05:42.689Z,101259.72
2022-07-26T03:08:09.757Z,101261.75
2022-07-26T03:10:36.709Z,101267.91
2022-07-26T03:13:03.658Z,101261.75
2022-07-26T03:15:30.659Z,101265.44
2022-07-26T03:17:57.568Z,101265.44
2022-07-26T03:20:24.547Z,101270.16
2022-07-26T03:22:51.408Z,101272.19
2022-07-26T03:25:18.264Z,101284.09
2022-07-26T03:27:45.090Z,101283.88
2022-07-26T03:30:12.739Z,101278.34
2022-07-26T03:32:39.983Z,101279.75
2022-07-26T03:35:08.235Z,101282.03
2022-07-26T03:37:45.629Z,101272.34
2022-07-26T03:40:16.243Z,101294.06
2022-07-26T03:42:43.893Z,101291.59
2022-07-26T03:45:12.348Z,101296.13
2022-07-26T03:47:39.165Z,101291.78
2022-07-26T03:50:07.070Z,101290.78
2022-07-26T03:52:34.644Z,101294.03
2022-07-26T03:55:01.558Z,101299.13
2022-07-26T03:57:28.562Z,101297.84
2022-07-26T03:59:56.067Z,101303.16
2022-07-26T04:02:23.019Z,101304.81
2022-07-26T04:04:49.907Z,101296.81
2022-07-26T04:07:16.835Z,101301.97
2022-07-26T04:09:44.090Z,101308.13
2022-07-26T04:12:11.145Z,101306.72
2022-07-26T04:14:38.864Z,101300.38
2022-07-26T04:17:05.997Z,101304.88
2022-07-26T04:19:34.963Z,101306.72
2022-07-26T04:22:07.088Z,101304.06
2022-07-26T04:24:34.059Z,101304.81
2022-07-26T04:27:00.997Z,101311.38
2022-07-26T04:29:33.074Z,101307.88
2022-07-26T04:31:59.990Z,101310.56
2022-07-26T04:34:27.122Z,101323.06
2022-07-26T04:36:54.095Z,101320.78
2022-07-26T04:39:32.858Z,101323.53
2022-07-26T04:41:59.946Z,101330.72
2022-07-26T04:44:27.090Z,101337.88
2022-07-26T04:46:54.192Z,101340.53
2022-07-26T04:49:32.122Z,101345.88
2022-07-26T04:51:59.948Z,101343.19
2022-07-26T04:54:27.144Z,101346.44
2022-07-26T04:56:54.298Z,101346.00
2022-07-26T04:59:32.795Z,101350.69
2022-07-26T05:02:00.429Z,101363.41
2022-07-26T05:04:27.904Z,101359.47
2022-07-26T05:06:54.935Z,101355.78
2022-07-26T05:09:33.000Z,101356.81
2022-07-26T05:12:00.110Z,101363.59
2022-07-26T05:14:27.148Z,101370.13
2022-07-26T05:16:55.426Z,101373.81
2022-07-26T05:19:33.651Z,101371.13
2022-07-26T05:22:00.495Z,101369.66
2022-07-26T05:24:27.527Z,101361.63
2022-07-26T05:26:58.560Z,101367.31
2022-07-26T05:29:32.900Z,101375.88
2022-07-26T05:31:59.814Z,101383.22
2022-07-26T05:34:27.019Z,101391.78
2022-07-26T05:36:54.129Z,101392.06
2022-07-26T05:39:29.888Z,101390.16
2022-07-26T05:41:56.727Z,101392.53
2022-07-26T05:44:25.697Z,101391.09
2022-07-26T05:46:53.320Z,101391.84
2022-07-26T05:49:28.461Z,101397.81
2022-07-26T05:52:08.194Z,101397.53
2022-07-26T05:54:35.651Z,101394.22
2022-07-26T05:57:02.619Z,101398.53
2022-07-26T05:59:32.710Z,101392.41
2022-07-26T06:02:00.236Z,101394.69
2022-07-26T06:04:28.234Z,101397.16
2022-07-26T06:06:55.637Z,101401.66
2022-07-26T06:09:31.819Z,101407.44
2022-07-26T06:11:59.076Z,101404.41
2022-07-26T06:14:26.344Z,101404.41
2022-07-26T06:16:53.316Z,101409.28
2022-07-26T06:19:29.576Z,101413.97
2022-07-26T06:21:56.565Z,101411.94
2022-07-26T06:24:24.181Z,101411.56
2022-07-26T06:26:56.794Z,101408.63
2022-07-26T06:29:32.581Z,101414.34
2022-07-26T06:32:00.139Z,101421.50
2022-07-26T06:34:27.341Z,101417.53
2022-07-26T06:36:55.415Z,101429.00
2022-07-26T06:39:34.660Z,101423.34
2022-07-26T06:42:01.618Z,101427.09
2022-07-26T06:44:29.178Z,101430.22
2022-07-26T06:46:56.743Z,101421.47
2022-07-26T06:49:38.383Z,101430.38
2022-07-26T06:52:05.635Z,101433.84
2022-07-26T06:54:32.463Z,101440.84
2022-07-26T06:56:59.390Z,101444.34
2022-07-26T06:59:34.421Z,101447.66
2022-07-26T07:02:02.118Z,101455.06
2022-07-26T07:04:31.050Z,101454.25
2022-07-26T07:07:08.779Z,101454.03
2022-07-26T07:09:38.404Z,101458.34
2022-07-26T07:12:09.824Z,101449.38
2022-07-26T07:14:38.103Z,101447.53
2022-07-26T07:17:12.066Z,101454.88
2022-07-26T07:19:42.363Z,101457.75
2022-07-26T07:22:12.672Z,101461.22
2022-07-26T07:24:40.564Z,101464.69
2022-07-26T07:27:08.111Z,101468.00
2022-07-26T07:29:41.234Z,101476.19
2022-07-26T07:32:09.148Z,101475.72
2022-07-26T07:34:46.280Z,101464.34
2022-07-26T07:37:15.103Z,101472.69
2022-07-26T07:39:43.878Z,101475.00
2022-07-26T07:42:17.190Z,101466.09
2022-07-26T07:44:44.963Z,101471.50
2022-07-26T07:47:12.291Z,101467.00
2022-07-26T07:49:40.296Z,101468.94
2022-07-26T07:52:07.553Z,101471.88
2022-07-26T07:54:34.456Z,101471.56
2022-07-26T07:57:01.267Z,101470.44
2022-07-26T07:59:39.332Z,101471.03
2022-07-26T08:02:06.589Z,101472.72
2022-07-26T08:04:33.612Z,101468.19
2022-07-26T08:07:00.560Z,101473.78
2022-07-26T08:09:35.708Z,101475.81
2022-07-26T08:12:03.405Z,101477.56
2022-07-26T08:14:30.807Z,101474.88
2022-07-26T08:16:57.875Z,101482.28
2022-07-26T08:19:41.489Z,101477.50
2022-07-26T08:22:09.588Z,101477.28
2022-07-26T08:24:36.610Z,101486.94
2022-07-26T08:27:03.684Z,101485.09
2022-07-26T08:29:35.785Z,101486.84
2022-07-26T08:32:02.773Z,101480.50
2022-07-26T08:34:29.777Z,101482.72
2022-07-26T08:37:16.055Z,101488.34
2022-07-26T08:39:43.489Z,101494.34
2022-07-26T08:42:22.887Z,101492.41
2022-07-26T08:44:51.350Z,101483.44
2022-07-26T08:47:37.888Z,101487.03
2022-07-26T08:50:08.218Z,101492.78
2022-07-26T08:52:35.114Z,101491.38
2022-07-26T08:55:01.886Z,101494.13
2022-07-26T08:57:28.715Z,101498.25
2022-07-26T09:00:34.941Z,101499.72
2022-07-26T09:03:03.766Z,101497.03
2022-07-26T09:05:33.528Z,101501.56
2022-07-26T09:08:01.956Z,101497.28
2022-07-26T09:10:45.223Z,101503.72
2022-07-26T09:13:12.103Z,101510.69
2022-07-26T09:15:39.022Z,101507.63
2022-07-26T09:18:06.002Z,101514.03
2022-07-26T09:20:33.262Z,101519.00
2022-07-26T09:23:14.129Z,101521.22
2022-07-26T09:25:44.290Z,101517.91
2022-07-26T09:28:29.754Z,101519.50
2022-07-26T09:31:03.409Z,101518.69
2022-07-26T09:33:47.193Z,101520.56
2022-07-26T09:36:15.308Z,101522.31
2022-07-26T09:38:47.532Z,101526.81
2022-07-26T09:41:22.269Z,101519.06
2022-07-26T09:43:53.893Z,101521.59
2022-07-26T09:46:23.107Z,101520.47
2022-07-26T09:49:10.109Z,101521.94
2022-07-26T09:51:38.258Z,101527.53
2022-07-26T09:54:05.869Z,101524.69
2022-07-26T09:56:50.231Z,101518.75
2022-07-26T09:59:31.776Z,101531.69
2022-07-26T10:02:00.820Z,101527.81
2022-07-26T10:04:27.936Z,101530.09
2022-07-26T10:06:58.335Z,101533.78
2022-07-26T10:09:59.706Z,101526.16
2022-07-26T10:12:32.440Z,101523.50
2022-07-26T10:15:00.019Z,101536.03
2022-07-26T10:17:31.331Z,101528.38
2022-07-26T10:20:17.017Z,101534.78
2022-07-26T10:22:50.918Z,101535.59
2022-07-26T10:25:18.493Z,101543.22
2022-07-26T10:27:47.828Z,101536.63
2022-07-26T10:30:18.510Z,101533.59
2022-07-26T10:32:51.363Z,101540.19
2022-07-26T10:35:45.463Z,101538.16
2022-07-26T10:38:26.734Z,101538.78
2022-07-26T10:41:01.989Z,101532.41
2022-07-26T10:43:45.783Z,101538.19
2022-07-26T10:46:19.391Z,101535.75
2022-07-26T10:49:04.346Z,101546.47
2022-07-26T10:51:36.584Z,101547.13
2022-07-26T10:54:10.403Z,101548.72
2022-07-26T10:56:38.381Z,101548.34
2022-07-26T10:59:06.504Z,101544.25
2022-07-26T11:01:42.075Z,101540.38
2022-07-26T11:04:22.883Z,101549.00
2022-07-26T11:06:50.165Z,101548.81
2022-07-26T11:09:19.236Z,101552.69
2022-07-26T11:11:48.998Z,101545.91
2022-07-26T11:14:18.036Z,101549.59
2022-07-26T11:16:48.142Z,101546.09
2022-07-26T11:19:28.303Z,101549.59
2022-07-26T11:22:01.703Z,101534.81
2022-07-26T11:24:29.245Z,101537.25
2022-07-26T11:26:57.001Z,101536.00
2022-07-26T11:29:41.493Z,101536.19
2022-07-26T11:32:24.016Z,101541.53
2022-07-26T11:35:05.764Z,101543.00
2022-07-26T11:37:33.156Z,101534.56
2022-07-26T11:40:00.273Z,101532.91
2022-07-26T11:42:27.796Z,101544.63
2022-07-26T11:44:55.003Z,101539.28
2022-07-26T11:47:24.324Z,101547.94
2022-07-26T11:52:42.906Z,101538.44
2022-07-26T11:55:10.076Z,101540.13
2022-07-26T11:57:37.480Z,101531.91
2022-07-26T12:00:06.172Z,101540.53
2022-07-26T12:02:33.656Z,101545.28
2022-07-26T12:05:21.755Z,101547.53
2022-07-26T12:08:04.691Z,101543.00
2022-07-26T12:10:31.651Z,101544.84
2022-07-26T12:13:12.054Z,101548.72
2022-07-26T12:15:51.166Z,101544.03
2022-07-26T12:18:31.784Z,101545.91
2022-07-26T12:21:05.188Z,101544.25
2022-07-26T12:23:51.333Z,101551.50
2022-07-26T12:26:23.269Z,101558.28
2022-07-26T12:28:50.479Z,101557.72
2022-07-26T12:31:24.665Z,101562.69
2022-07-26T12:33:51.783Z,101557.94
2022-07-26T12:36:27.107Z,101557.16
2022-07-26T12:38:57.164Z,101557.94
2022-07-26T12:41:38.627Z,101560.63
2022-07-26T12:44:07.503Z,101563.09
2022-07-26T12:46:36.341Z,101561.06
2022-07-26T12:49:04.361Z,101559.81
2022-07-26T12:51:32.001Z,101568.28
2022-07-26T12:53:59.225Z,101568.06
2022-07-26T12:56:26.024Z,101566.88
2022-07-26T12:58:54.392Z,101578.16
2022-07-26T13:01:23.389Z,101569.53
2022-07-26T13:03:52.379Z,101564.84
2022-07-26T13:06:19.404Z,101560.72
2022-07-26T13:08:46.288Z,101557.63
2022-07-26T13:11:13.479Z,101554.78
2022-07-26T13:13:40.981Z,101556.19
2022-07-26T13:16:11.692Z,101555.59
2022-07-26T13:18:40.032Z,101557.44
2022-07-26T13:21:07.580Z,101556.22
2022-07-26T13:23:35.071Z,101556.03
2022-07-26T13:26:04.078Z,101560.16
2022-07-26T13:28:31.396Z,101559.13
2022-07-26T13:30:58.774Z,101549.06
2022-07-26T13:33:26.085Z,101553.38
2022-07-26T13:35:53.448Z,101551.97
2022-07-26T13:38:20.587Z,101553.81
2022-07-26T13:40:47.603Z,101546.19
2022-07-26T13:43:15.162Z,101547.84
2022-07-26T13:45:42.617Z,101551.75
2022-07-26T13:48:09.706Z,101556.47
2022-07-26T13:50:36.536Z,101549.88
2022-07-26T13:53:03.636Z,101549.88
2022-07-26T13:55:30.928Z,101549.88
2022-07-26T13:57:58.422Z,101545.78
2022-07-26T14:00:29.736Z,101550.50
2022-07-26T14:03:00.193Z,101550.31
2022-07-26T14:05:28.124Z,101546.41
2022-07-26T14:07:55.653Z,101546.69
2022-07-26T14:10:22.803Z,101542.78
2022-07-26T14:12:49.762Z,101535.78
2022-07-26T14:15:22.131Z,101541.97
2022-07-26T14:17:51.701Z,101537.00
2022-07-26T14:20:18.857Z,101539.28
2022-07-26T14:22:46.028Z,101532.91
2022-07-26T14:25:12.963Z,101534.13
2022-07-26T14:27:39.872Z,101535.38
2022-07-26T14:30:07.356Z,101530.84
2022-07-26T14:32:34.576Z,101532.25
2022-07-26T14:35:01.408Z,101541.53
2022-07-26T14:37:41.546Z,101539.47
2022-07-26T14:40:13.511Z,101535.53
2022-07-26T14:42:40.446Z,101537.81
2022-07-26T14:45:09.654Z,101541.72
2022-07-26T14:47:36.766Z,101533.28
2022-07-26T14:50:07.233Z,101538.03
2022-07-26T14:52:37.993Z,101530.19
2022-07-26T14:55:06.137Z,101528.72
2022-07-26T14:57:33.659Z,101530.97
2022-07-26T15:00:06.832Z,101534.28
2022-07-26T15:02:34.145Z,101529.94
2022-07-26T15:05:01.883Z,101530.78
2022-07-26T15:07:28.747Z,101531.59
2022-07-26T15:09:55.647Z,101535.09
2022-07-26T15:12:22.684Z,101538.22
2022-07-26T15:14:50.013Z,101538.03
2022-07-26T15:17:16.946Z,101540.69
2022-07-26T15:19:48.353Z,101531.00
2022-07-26T15:22:16.265Z,101530.19
2022-07-26T15:24:43.593Z,101522.16
2022-07-26T15:27:10.808Z,101517.41
2022-07-26T15:29:42.175Z,101517.41
2022-07-26T15:32:09.243Z,101528.72
2022-07-26T15:34:36.156Z,101518.63
2022-07-26T15:37:02.965Z,101523.16
2022-07-26T15:39:32.562Z,101516.97
2022-07-26T15:42:05.411Z,101519.66
2022-07-26T15:44:34.606Z,101515.75
2022-07-26T15:47:01.884Z,101515.75
2022-07-26T15:49:31.807Z,101517.38
2022-07-26T15:51:59.388Z,101519.22
2022-07-26T15:54:26.853Z,101518.44
2022-07-26T15:56:53.669Z,101512.44
2022-07-26T15:59:30.591Z,101509.78
2022-07-26T16:01:58.063Z,101514.31
2022-07-26T16:04:25.456Z,101509.97
2022-07-26T16:06:52.358Z,101511.63
2022-07-26T16:09:20.577Z,101511.63
2022-07-26T16:11:49.117Z,101506.84
2022-07-26T16:14:16.955Z,101503.56
2022-07-26T16:16:44.775Z,101503.56
2022-07-26T16:19:12.458Z,101502.75
2022-07-26T16:21:40.639Z,101505.44
2022-07-26T16:24:08.278Z,101502.94
2022-07-26T16:26:36.387Z,101499.03
2022-07-26T16:29:04.820Z,101499.03
2022-07-26T16:31:32.822Z,101495.72
2022-07-26T16:33:59.946Z,101500.06
2022-07-26T16:36:27.505Z,101491.41
2022-07-26T16:38:54.613Z,101496.56
2022-07-26T16:41:21.511Z,101492.81
2022-07-26T16:43:48.862Z,101495.09
2022-07-26T16:46:16.303Z,101487.06
2022-07-26T16:48:44.334Z,101494.69
2022-07-26T16:51:13.821Z,101484.19
2022-07-26T16:53:41.415Z,101485.81
2022-07-26T16:56:08.376Z,101489.56
2022-07-26T16:58:36.261Z,101485.81
2022-07-26T17:01:03.759Z,101481.28
2022-07-26T17:03:30.914Z,101489.34
2022-07-26T17:05:59.855Z,101487.28
2022-07-26T17:08:30.102Z,101487.88
2022-07-26T17:10:58.194Z,101487.28
2022-07-26T17:13:25.981Z,101490.97
2022-07-26T17:15:52.968Z,101485.81
2022-07-26T17:18:19.941Z,101494.06
2022-07-26T17:20:46.878Z,101488.91
2022-07-26T17:23:13.929Z,101489.09
2022-07-26T17:25:41.140Z,101492.63
2022-07-26T17:28:08.448Z,101493.88
2022-07-26T17:30:35.723Z,101489.13
2022-07-26T17:33:02.606Z,101496.53
2022-07-26T17:35:29.999Z,101497.38
2022-07-26T17:37:56.866Z,101496.75
2022-07-26T17:40:25.679Z,101500.44
2022-07-26T17:42:52.964Z,101500.88
2022-07-26T17:45:20.018Z,101498.59
2022-07-26T17:47:47.164Z,101497.16
2022-07-26T17:50:35.333Z,101502.50
2022-07-26T17:53:00.969Z,101496.31
2022-07-26T17:55:27.902Z,101499.63
2022-07-26T17:57:54.814Z,101488.28
2022-07-26T18:00:23.607Z,101499.00
2022-07-26T18:02:55.680Z,101492.81
2022-07-26T18:05:22.897Z,101490.56
2022-07-26T18:07:50.739Z,101489.16
2022-07-26T18:10:18.208Z,101490.78
2022-07-26T18:12:45.240Z,101497.97
2022-07-26T18:15:12.769Z,101498.63
2022-07-26T18:17:40.416Z,101499.44
2022-07-26T18:20:08.600Z,101495.94
2022-07-26T18:22:35.611Z,101497.97
2022-07-26T18:25:02.784Z,101503.16
2022-07-26T18:27:30.037Z,101507.09
2022-07-26T18:29:57.497Z,101505.44
2022-07-26T18:32:25.332Z,101503.81
2022-07-26T18:34:53.406Z,101509.59
2022-07-26T18:37:21.083Z,101503.63
2022-07-26T18:39:53.996Z,101511.03
2022-07-26T18:42:24.108Z,101515.16
2022-07-26T18:44:50.953Z,101514.56
2022-07-26T18:47:17.843Z,101507.75
2022-07-26T18:49:44.909Z,101517.63
2022-07-26T18:52:12.136Z,101511.25
2022-07-26T18:54:40.368Z,101511.66
2022-07-26T18:57:07.457Z,101521.97
2022-07-26T18:59:34.446Z,101520.94
2022-07-26T19:02:01.397Z,101523.19
2022-07-26T19:04:28.638Z,101519.09
2022-07-26T19:06:56.270Z,101537.22
2022-07-26T19:09:31.279Z,101532.91
2022-07-26T19:11:58.297Z,101539.28
2022-07-26T19:14:25.289Z,101526.69
2022-07-26T19:16:52.572Z,101532.47
2022-07-26T19:19:25.864Z,101527.50
2022-07-26T19:21:52.743Z,101530.63
2022-07-26T19:24:19.697Z,101528.53
2022-07-26T19:26:46.780Z,101536.16
2022-07-26T19:29:14.416Z,101530.78
2022-07-26T19:31:45.337Z,101535.72
2022-07-26T19:34:14.681Z,101543.13
2022-07-26T19:36:42.385Z,101542.69
2022-07-26T19:39:10.035Z,101535.09
2022-07-26T19:41:37.436Z,101547.84
2022-07-26T19:44:04.641Z,101537.97
2022-07-26T19:46:32.889Z,101544.38
2022-07-26T19:49:00.056Z,101548.06
2022-07-26T19:51:27.411Z,101543.31
2022-07-26T19:53:54.569Z,101541.03
2022-07-26T19:56:21.630Z,101558.09
2022-07-26T19:58:49.777Z,101553.59
2022-07-26T20:01:17.363Z,101565.72
2022-07-26T20:03:44.355Z,101553.97
2022-07-26T20:06:11.500Z,101564.25
2022-07-26T20:08:40.044Z,101565.69
2022-07-26T20:11:08.803Z,101569.78
2022-07-26T20:13:35.823Z,101566.28
2022-07-26T20:16:03.106Z,101572.03
2022-07-26T20:18:31.062Z,101566.25
2022-07-26T20:20:57.958Z,101568.94
2022-07-26T20:23:25.016Z,101567.28
2022-07-26T20:25:52.047Z,101572.41
2022-07-26T20:28:18.863Z,101580.44
2022-07-26T20:30:48.426Z,101582.47
2022-07-26T20:33:16.691Z,101581.84
2022-07-26T20:35:43.638Z,101582.88
2022-07-26T20:38:10.662Z,101587.19
2022-07-26T20:40:37.504Z,101586.56
2022-07-26T20:43:06.000Z,101586.38
2022-07-26T20:45:32.941Z,101588.22
2022-07-26T20:47:59.774Z,101591.31
2022-07-26T20:50:26.666Z,101591.69
2022-07-26T20:52:53.581Z,101591.69
2022-07-26T20:55:20.614Z,101598.03
2022-07-26T20:57:47.840Z,101599.09
2022-07-26T21:00:15.337Z,101607.31
2022-07-26T21:02:42.206Z,101604.22
2022-07-26T21:05:09.843Z,101604.78
2022-07-26T21:07:57.197Z,101612.78
2022-07-26T21:10:25.142Z,101613.59
2022-07-26T21:12:53.187Z,101612.97
2022-07-26T21:15:20.161Z,101613.81
2022-07-26T21:17:47.047Z,101614.00
2022-07-26T21:20:13.994Z,101616.25
2022-07-26T21:22:40.878Z,101623.00
2022-07-26T21:25:08.167Z,101628.53
2022-07-26T21:27:35.078Z,101624.63
2022-07-26T21:30:02.262Z,101628.69
2022-07-26T21:32:31.709Z,101635.25
2022-07-26T21:34:59.345Z,101632.75
2022-07-26T21:37:26.590Z,101632.34
2022-07-26T21:39:53.524Z,101625.75
2022-07-26T21:42:20.381Z,101634.13
2022-07-26T21:44:47.174Z,101633.03
2022-07-26T21:47:13.992Z,101637.34
2022-07-26T21:49:40.889Z,101631.75
2022-07-26T21:52:07.766Z,101631.94
2022-07-26T21:54:34.558Z,101636.28
2022-07-26T21:57:01.456Z,101634.44
2022-07-26T21:59:28.471Z,101631.75
2022-07-26T22:01:55.800Z,101640.56
2022-07-26T22:04:24.361Z,101636.06
2022-07-26T22:06:51.344Z,101643.88
2022-07-26T22:09:18.290Z,101639.78
2022-07-26T22:11:45.136Z,101638.13
2022-07-26T22:14:12.025Z,101634.19
2022-07-26T22:16:38.943Z,101638.63
2022-07-26T22:19:05.876Z,101653.19
2022-07-26T22:21:32.812Z,101645.38
2022-07-26T22:23:59.681Z,101655.41
2022-07-26T22:26:31.223Z,101653.75
2022-07-26T22:28:59.043Z,101650.25
2022-07-26T22:31:26.141Z,101651.06
2022-07-26T22:33:53.037Z,101651.47
2022-07-26T22:36:20.020Z,101652.88
2022-07-26T22:38:47.337Z,101653.06
2022-07-26T22:41:14.183Z,101647.72
2022-07-26T22:43:41.074Z,101659.22
2022-07-26T22:46:08.166Z,101648.94
2022-07-26T22:48:38.354Z,101649.97
2022-07-26T22:51:05.280Z,101656.28
2022-07-26T22:53:32.094Z,101656.47
2022-07-26T22:55:59.032Z,101655.84
2022-07-26T22:58:25.992Z,101656.63
2022-07-26T23:00:53.009Z,101654.53
2022-07-26T23:03:21.895Z,101660.28
2022-07-26T23:05:50.358Z,101661.47
2022-07-26T23:11:05.237Z,101649.72
2022-07-26T23:13:32.189Z,101659.56
2022-07-26T23:16:01.276Z,101656.91
2022-07-26T23:18:29.398Z,101654.41
2022-07-26T23:20:56.254Z,101653.59
2022-07-26T23:23:23.229Z,101649.06
2022-07-26T23:25:54.815Z,101658.09
2022-07-26T23:28:24.880Z,101655.06
2022-07-26T23:31:03.904Z,101650.72
2022-07-26T23:33:50.730Z,101659.56
2022-07-26T23:36:17.737Z,101659.75
2022-07-26T23:38:45.044Z,101660.94
2022-07-26T23:41:11.907Z,101663.25
2022-07-26T23:43:38.783Z,101662.41
2022-07-26T23:46:05.595Z,101663.25
2022-07-26T23:48:32.572Z,101668.59
2022-07-26T23:50:59.432Z,101661.59
2022-07-26T23:53:27.093Z,101663.25
2022-07-26T23:55:54.383Z,101664.25
2022-07-26T23:58:21.936Z,101669.59
